Time;durP1;ratioP1;P1;durP2;ratioP2;P2;SDS_P1;SDS_P2;PMS_P1;PMS_P2;Temp;Humidity;BMP_temperature;BMP_pressure;BME280_temperature;BME280_humidity;BME280_pressure;Samples;Min_cycle;Max_cycle;Signal;HPM_P1;HPM_P2
2020/12/21 00:00:22;;;;;;;16.15;10.38;;;7.60;95.60;;;;;;5031665;28;20072;-69
2020/12/21 00:02:48;;;;;;;15.70;9.93;;;7.60;95.60;;;;;;5020528;28;20489;-70
2020/12/21 00:05:13;;;;;;;16.73;10.60;;;7.60;95.70;;;;;;5044128;28;20078;-70
2020/12/21 00:07:39;;;;;;;15.60;10.43;;;7.60;95.70;;;;;;5013582;28;20117;-70
2020/12/21 00:10:05;;;;;;;16.98;10.52;;;7.60;95.70;;;;;;5024771;28;20026;-70
2020/12/21 00:12:32;;;;;;;14.05;10.18;;;7.60;95.70;;;;;;5012609;28;20076;-70
2020/12/21 00:14:58;;;;;;;16.95;9.77;;;7.60;95.80;;;;;;5033941;28;20098;-69
2020/12/21 00:17:23;;;;;;;17.92;10.73;;;7.60;95.80;;;;;;5050987;28;20474;-68
2020/12/21 00:19:48;;;;;;;18.98;10.73;;;7.60;95.80;;;;;;5035949;28;20029;-69
2020/12/21 00:22:19;;;;;;;16.95;10.57;;;7.60;95.80;;;;;;5014372;28;20484;-68
2020/12/21 00:24:45;;;;;;;15.38;10.25;;;7.60;95.90;;;;;;5029437;28;20374;-69
2020/12/21 00:27:10;;;;;;;17.05;10.35;;;7.60;95.90;;;;;;5032709;28;20343;-69
2020/12/21 00:29:36;;;;;;;15.07;10.13;;;7.60;96.00;;;;;;5038358;28;20036;-68
2020/12/21 00:32:01;;;;;;;17.95;10.73;;;7.60;96.00;;;;;;5012236;28;20034;-68
2020/12/21 00:34:27;;;;;;;18.27;10.38;;;7.60;96.00;;;;;;5022432;28;20112;-69
2020/12/21 00:36:53;;;;;;;15.82;9.77;;;7.60;96.00;;;;;;5031124;28;20117;-69
2020/12/21 00:39:20;;;;;;;17.92;10.55;;;7.60;96.10;;;;;;5012702;28;20469;-69
2020/12/21 00:41:46;;;;;;;16.80;10.68;;;7.60;96.10;;;;;;5029695;28;20037;-70
2020/12/21 00:44:12;;;;;;;15.30;9.93;;;7.60;96.10;;;;;;5034553;28;20461;-69
2020/12/21 00:46:37;;;;;;;16.83;9.98;;;7.60;96.20;;;;;;5013540;28;20057;-69
2020/12/21 00:49:03;;;;;;;15.60;10.77;;;7.60;96.20;;;;;;5018387;28;20125;-69
2020/12/21 00:51:29;;;;;;;17.60;10.40;;;7.50;96.20;;;;;;5030684;28;20548;-69
2020/12/21 00:53:55;;;;;;;14.43;9.90;;;7.50;96.20;;;;;;5031552;28;20109;-70
2020/12/21 00:56:22;;;;;;;16.85;10.30;;;7.50;96.30;;;;;;5012771;28;20441;-69
2020/12/21 00:58:48;;;;;;;19.08;10.65;;;7.60;96.30;;;;;;5027594;28;20592;-70
2020/12/21 01:01:18;;;;;;;17.50;10.40;;;7.60;96.30;;;;;;5013728;28;20026;-69
2020/12/21 01:03:44;;;;;;;17.27;9.93;;;7.60;96.40;;;;;;5013868;28;20030;-69
2020/12/21 01:06:10;;;;;;;14.95;9.80;;;7.60;96.40;;;;;;5017737;28;20112;-69
2020/12/21 01:08:36;;;;;;;17.73;10.20;;;7.60;96.40;;;;;;5013652;28;20450;-69
2020/12/21 01:11:08;;;;;;;16.50;10.88;;;7.60;96.40;;;;;;5031790;28;20026;-70
2020/12/21 01:13:33;;;;;;;16.30;10.82;;;7.60;96.50;;;;;;5023968;28;20238;-69
2020/12/21 01:15:59;;;;;;;16.75;10.38;;;7.60;96.50;;;;;;5045867;28;20032;-70
2020/12/21 01:18:25;;;;;;;19.02;10.90;;;7.60;96.50;;;;;;5037030;28;20109;-70
2020/12/21 01:20:50;;;;;;;16.27;10.40;;;7.60;96.60;;;;;;5011722;28;20038;-69
2020/12/21 01:23:15;;;;;;;16.23;10.60;;;7.50;96.50;;;;;;5011678;28;20018;-68
2020/12/21 01:25:41;;;;;;;15.95;10.15;;;7.50;96.60;;;;;;5011780;28;20567;-69
2020/12/21 01:28:06;;;;;;;17.63;10.98;;;7.50;96.60;;;;;;5030752;28;20018;-69
2020/12/21 01:30:32;;;;;;;17.10;10.90;;;7.50;96.70;;;;;;5042624;28;20025;-69
2020/12/21 01:32:57;;;;;;;17.17;9.95;;;7.40;96.70;;;;;;5011439;28;20132;-69
2020/12/21 01:35:23;;;;;;;16.60;10.20;;;7.40;96.80;;;;;;5004490;28;20463;-70
2020/12/21 01:37:48;;;;;;;18.15;10.60;;;7.40;96.80;;;;;;5025648;28;20123;-69
2020/12/21 01:40:14;;;;;;;16.67;10.52;;;7.40;96.80;;;;;;5030312;28;20047;-69
2020/12/21 01:42:39;;;;;;;17.73;10.90;;;7.40;96.90;;;;;;5030827;28;20499;-70
2020/12/21 01:45:06;;;;;;;17.70;9.90;;;7.40;96.90;;;;;;5006143;28;20026;-69
2020/12/21 01:47:32;;;;;;;15.77;10.02;;;7.40;96.90;;;;;;5014171;28;20049;-70
2020/12/21 01:49:58;;;;;;;16.02;10.15;;;7.40;97.00;;;;;;5015996;28;20252;-69
2020/12/21 01:52:24;;;;;;;17.15;10.45;;;7.40;97.00;;;;;;5012344;28;20132;-70
2020/12/21 01:54:50;;;;;;;19.55;10.85;;;7.50;97.10;;;;;;5028400;28;20461;-70
2020/12/21 01:57:16;;;;;;;15.50;10.57;;;7.40;97.10;;;;;;5011386;28;20030;-70
2020/12/21 01:59:41;;;;;;;16.58;10.45;;;7.40;97.10;;;;;;5021894;28;20033;-70
2020/12/21 02:02:07;;;;;;;17.98;11.45;;;7.40;97.20;;;;;;5011142;28;20335;-69
2020/12/21 02:04:33;;;;;;;19.52;12.38;;;7.40;97.20;;;;;;5014040;28;20034;-69
2020/12/21 02:07:00;;;;;;;20.27;12.27;;;7.50;97.30;;;;;;5011356;28;20034;-69
2020/12/21 02:09:26;;;;;;;16.85;10.25;;;7.50;97.30;;;;;;5016938;28;21257;-69
2020/12/21 02:11:53;;;;;;;19.35;10.88;;;7.50;97.30;;;;;;5030752;28;20030;-69
2020/12/21 02:14:18;;;;;;;20.40;12.55;;;7.50;97.30;;;;;;5024765;28;20034;-69
2020/12/21 02:16:44;;;;;;;17.00;10.75;;;7.50;97.40;;;;;;5035223;28;20116;-70
2020/12/21 02:19:09;;;;;;;17.42;11.38;;;7.50;97.40;;;;;;5039176;28;20466;-69
2020/12/21 02:21:35;;;;;;;16.33;10.80;;;7.50;97.40;;;;;;5036555;28;20164;-69
2020/12/21 02:24:00;;;;;;;16.63;10.43;;;7.50;97.40;;;;;;5043555;28;20044;-69
2020/12/21 02:26:26;;;;;;;17.10;10.52;;;7.50;97.40;;;;;;5043102;28;20028;-70
2020/12/21 02:28:54;;;;;;;14.93;9.88;;;7.50;97.50;;;;;;5046882;28;20021;-69
2020/12/21 02:31:20;;;;;;;15.73;10.32;;;7.50;97.50;;;;;;5025533;28;20033;-69
2020/12/21 02:33:46;;;;;;;17.45;10.73;;;7.60;97.50;;;;;;5045981;28;20092;-70
2020/12/21 02:36:12;;;;;;;16.40;10.75;;;7.60;97.50;;;;;;5033231;28;20072;-69
2020/12/21 02:38:38;;;;;;;19.30;11.70;;;7.60;97.50;;;;;;5031511;28;20053;-69
2020/12/21 02:41:04;;;;;;;15.80;10.27;;;7.60;97.50;;;;;;5028547;28;20034;-71
2020/12/21 02:43:29;;;;;;;19.27;11.55;;;7.60;97.50;;;;;;5033432;28;20075;-70
2020/12/21 02:45:55;;;;;;;16.15;11.10;;;7.60;97.50;;;;;;5041461;28;20032;-70
2020/12/21 02:48:21;;;;;;;17.35;11.05;;;7.70;97.50;;;;;;5025955;28;20034;-69
2020/12/21 02:50:47;;;;;;;16.88;10.32;;;7.60;97.50;;;;;;5025052;28;20033;-70
2020/12/21 02:53:14;;;;;;;16.67;10.70;;;7.70;97.60;;;;;;5029137;28;20029;-69
2020/12/21 02:55:39;;;;;;;17.30;10.45;;;7.70;97.50;;;;;;5039225;28;20033;-69
2020/12/21 02:58:05;;;;;;;17.23;10.30;;;7.70;97.50;;;;;;5033611;28;20026;-69
2020/12/21 03:00:33;;;;;;;17.30;10.10;;;7.70;97.60;;;;;;5042821;28;20026;-70
2020/12/21 03:02:59;;;;;;;15.35;9.85;;;7.70;97.60;;;;;;5032018;28;20025;-69
2020/12/21 03:05:25;;;;;;;17.05;10.55;;;7.80;97.50;;;;;;5032871;28;20029;-69
2020/12/21 03:07:50;;;;;;;16.25;10.88;;;7.80;97.50;;;;;;5032798;28;20394;-70
2020/12/21 03:10:16;;;;;;;15.02;10.10;;;7.90;97.50;;;;;;5034680;28;20039;-69
2020/12/21 03:12:41;;;;;;;17.67;10.65;;;7.90;97.40;;;;;;5042802;28;20481;-69
2020/12/21 03:15:07;;;;;;;16.35;10.38;;;7.90;97.40;;;;;;5032302;28;20025;-69
2020/12/21 03:17:32;;;;;;;16.55;10.57;;;7.90;97.40;;;;;;5021885;28;20033;-69
2020/12/21 03:19:57;;;;;;;16.50;10.80;;;7.90;97.40;;;;;;5016535;28;20127;-70
2020/12/21 03:22:23;;;;;;;16.10;9.77;;;7.90;97.50;;;;;;5049969;28;20021;-70
2020/12/21 03:24:49;;;;;;;15.55;10.05;;;7.90;97.50;;;;;;5048126;28;20441;-70
2020/12/21 03:27:14;;;;;;;15.75;10.35;;;7.90;97.50;;;;;;5030880;28;20031;-70
2020/12/21 03:29:40;;;;;;;18.65;10.75;;;7.90;97.50;;;;;;5033249;28;20199;-69
2020/12/21 03:32:05;;;;;;;15.73;10.77;;;8.00;97.50;;;;;;5032802;28;20362;-70
2020/12/21 03:34:31;;;;;;;17.52;10.00;;;8.00;97.60;;;;;;5033535;28;20033;-69
2020/12/21 03:36:56;;;;;;;17.58;11.00;;;8.00;97.40;;;;;;5015743;28;20028;-70
2020/12/21 03:39:22;;;;;;;17.83;11.52;;;8.00;97.40;;;;;;5013574;28;20037;-69
2020/12/21 03:41:47;;;;;;;17.98;10.52;;;8.00;97.40;;;;;;5030555;28;20030;-65
2020/12/21 03:44:13;;;;;;;16.33;11.30;;;8.00;97.50;;;;;;5032362;28;20013;-65
2020/12/21 03:46:38;;;;;;;19.42;11.35;;;8.00;97.50;;;;;;5041913;28;20392;-65
2020/12/21 03:49:04;;;;;;;17.42;11.05;;;8.00;97.50;;;;;;5053055;28;20075;-64
2020/12/21 03:51:29;;;;;;;18.20;11.40;;;8.00;97.50;;;;;;5033931;28;20060;-65
2020/12/21 03:53:55;;;;;;;17.35;11.38;;;8.00;97.50;;;;;;5028675;28;20049;-64
2020/12/21 03:56:20;;;;;;;16.02;10.43;;;8.10;97.50;;;;;;5034089;28;20025;-65
2020/12/21 03:58:45;;;;;;;18.73;12.35;;;8.10;97.40;;;;;;5040346;28;20045;-65
2020/12/21 04:01:11;;;;;;;18.33;11.95;;;8.10;97.40;;;;;;5013727;28;20033;-65
2020/12/21 04:03:36;;;;;;;16.55;11.27;;;8.10;97.40;;;;;;5036782;28;20033;-64
2020/12/21 04:06:02;;;;;;;19.20;11.80;;;8.10;97.40;;;;;;4996278;28;20026;-65
2020/12/21 04:08:27;;;;;;;16.90;11.52;;;8.10;97.40;;;;;;5038390;28;20064;-65
2020/12/21 04:10:53;;;;;;;18.58;11.85;;;8.10;97.40;;;;;;5023864;28;20028;-65
2020/12/21 04:13:18;;;;;;;17.77;11.93;;;8.10;97.30;;;;;;5018559;28;20049;-65
2020/12/21 04:15:44;;;;;;;15.73;10.63;;;8.10;97.30;;;;;;5019347;28;20518;-65
2020/12/21 04:18:09;;;;;;;15.70;10.15;;;8.10;97.30;;;;;;5017906;28;20470;-65
2020/12/21 04:20:35;;;;;;;17.23;11.75;;;8.10;97.50;;;;;;5017217;28;21230;-65
2020/12/21 04:23:02;;;;;;;16.90;10.77;;;8.10;97.30;;;;;;5040897;28;20108;-65
2020/12/21 04:25:28;;;;;;;16.90;11.45;;;8.10;97.30;;;;;;5045236;28;20384;-65
2020/12/21 04:27:54;;;;;;;20.15;12.13;;;8.10;97.30;;;;;;5032594;28;20025;-65
2020/12/21 04:30:19;;;;;;;17.02;10.65;;;8.10;97.30;;;;;;5031512;28;20576;-65
2020/12/21 04:32:45;;;;;;;17.23;11.48;;;8.10;97.30;;;;;;5032592;28;20029;-64
2020/12/21 04:35:10;;;;;;;16.40;10.30;;;8.10;97.30;;;;;;5032333;28;20029;-65
2020/12/21 04:37:36;;;;;;;16.17;11.25;;;8.10;97.30;;;;;;5032214;28;20501;-65
2020/12/21 04:40:01;;;;;;;16.17;10.60;;;8.10;97.20;;;;;;5030472;28;20026;-65
2020/12/21 04:42:27;;;;;;;18.52;11.68;;;8.10;97.20;;;;;;5031913;28;20148;-65
2020/12/21 04:44:53;;;;;;;18.73;12.02;;;8.10;97.20;;;;;;5017699;28;20036;-65
2020/12/21 04:47:19;;;;;;;19.50;11.55;;;8.10;97.20;;;;;;5044751;28;20119;-65
2020/12/21 04:49:46;;;;;;;18.58;11.70;;;8.00;97.20;;;;;;5025909;28;20033;-65
2020/12/21 04:52:13;;;;;;;20.13;12.75;;;8.00;97.30;;;;;;5029408;28;20033;-65
2020/12/21 04:54:39;;;;;;;20.48;12.15;;;7.90;97.40;;;;;;5019707;28;20188;-64
2020/12/21 04:57:05;;;;;;;18.33;11.10;;;7.90;97.30;;;;;;5028376;28;20033;-64
2020/12/21 04:59:31;;;;;;;18.80;11.77;;;8.00;97.40;;;;;;5029908;28;20049;-65
2020/12/21 05:01:57;;;;;;;18.55;11.70;;;7.90;97.30;;;;;;5018909;28;20036;-65
2020/12/21 05:04:23;;;;;;;20.85;12.40;;;7.90;97.30;;;;;;5023988;28;20104;-65
2020/12/21 05:06:53;;;;;;;17.92;11.82;;;8.00;97.40;;;;;;5025593;28;20095;-64
2020/12/21 05:09:21;;;;;;;19.63;11.50;;;8.00;97.40;;;;;;5025217;28;20018;-64
2020/12/21 05:11:55;;;;;;;19.40;12.25;;;7.90;97.30;;;;;;5034455;28;20075;-64
2020/12/21 05:14:30;;;;;;;16.25;11.18;;;7.90;97.30;;;;;;5030319;28;20088;-65
2020/12/21 05:16:56;;;;;;;17.73;10.95;;;7.90;97.30;;;;;;5030377;28;20090;-64
2020/12/21 05:19:22;;;;;;;17.58;11.23;;;7.90;97.30;;;;;;5030931;28;20033;-65
2020/12/21 05:21:54;;;;;;;18.98;11.82;;;7.90;97.30;;;;;;5034490;28;20033;-65
2020/12/21 05:24:22;;;;;;;21.23;12.30;;;7.90;97.30;;;;;;5047571;28;20092;-65
2020/12/21 05:26:48;;;;;;;19.48;11.68;;;7.90;97.30;;;;;;5035393;28;20029;-65
2020/12/21 05:29:24;;;;;;;17.20;11.52;;;7.90;97.50;;;;;;5031719;28;20052;-65
2020/12/21 05:31:50;;;;;;;19.85;11.43;;;7.90;97.30;;;;;;5035811;28;20399;-65
2020/12/21 05:34:28;;;;;;;20.08;12.93;;;7.80;97.30;;;;;;5031205;28;20021;-65
2020/12/21 05:36:53;;;;;;;17.42;11.05;;;7.80;97.30;;;;;;5029773;28;20033;-65
2020/12/21 05:39:20;;;;;;;19.73;11.93;;;7.80;97.30;;;;;;5030623;28;20037;-65
2020/12/21 05:41:45;;;;;;;19.48;12.50;;;7.80;97.30;;;;;;5031287;28;20026;-64
2020/12/21 05:44:11;;;;;;;17.33;10.95;;;7.70;97.30;;;;;;5051149;28;20039;-64
2020/12/21 05:46:37;;;;;;;21.55;11.35;;;7.80;97.30;;;;;;5023398;28;20021;-65
2020/12/21 05:49:03;;;;;;;19.98;11.75;;;7.80;97.20;;;;;;5028922;28;20029;-65
2020/12/21 05:51:39;;;;;;;17.92;11.88;;;7.80;97.20;;;;;;5000556;28;20406;-64
2020/12/21 05:54:06;;;;;;;20.33;11.52;;;7.80;97.30;;;;;;5006479;28;20057;-65
2020/12/21 05:56:36;;;;;;;18.90;12.32;;;7.70;97.20;;;;;;5015475;28;20029;-65
2020/12/21 05:59:03;;;;;;;19.88;11.25;;;7.70;97.20;;;;;;5011151;28;20030;-64
2020/12/21 06:01:28;;;;;;;17.95;11.13;;;7.70;97.30;;;;;;5020339;28;20037;-64
2020/12/21 06:04:01;;;;;;;18.90;11.65;;;7.70;97.30;;;;;;5018818;28;20068;-64
2020/12/21 06:06:29;;;;;;;19.15;11.57;;;7.70;97.30;;;;;;5025382;28;20025;-65
2020/12/21 06:09:03;;;;;;;18.42;11.65;;;7.60;97.30;;;;;;5032098;28;20057;-64
2020/12/21 06:11:32;;;;;;;18.67;11.90;;;7.60;97.30;;;;;;5015185;28;20389;-64
2020/12/21 06:14:14;;;;;;;18.52;11.02;;;7.60;97.30;;;;;;5015339;28;20081;-65
2020/12/21 06:16:40;;;;;;;21.42;11.68;;;7.60;97.30;;;;;;5017567;28;20560;-65
2020/12/21 06:19:11;;;;;;;19.35;12.10;;;7.60;97.30;;;;;;5015207;28;20034;-65
2020/12/21 06:21:41;;;;;;;17.35;10.90;;;7.60;97.30;;;;;;5021483;28;20030;-65
2020/12/21 06:24:17;;;;;;;17.23;11.40;;;7.60;97.30;;;;;;5028763;28;20107;-65
2020/12/21 06:26:43;;;;;;;17.83;10.90;;;7.50;97.40;;;;;;5031439;28;20026;-64
2020/12/21 06:29:21;;;;;;;20.75;12.18;;;7.60;97.40;;;;;;5014740;28;20034;-64
2020/12/21 06:31:47;;;;;;;17.88;11.18;;;7.50;97.40;;;;;;5024781;28;20021;-65
2020/12/21 06:34:17;;;;;;;17.65;11.00;;;7.50;97.40;;;;;;5034815;28;20048;-64
2020/12/21 06:36:45;;;;;;;20.15;11.82;;;7.50;97.40;;;;;;5038375;28;20060;-64
2020/12/21 06:39:22;;;;;;;18.90;10.57;;;7.50;97.40;;;;;;5054530;28;20035;-64
2020/12/21 06:41:47;;;;;;;19.50;12.43;;;7.50;97.40;;;;;;5033452;28;20030;-78
2020/12/21 06:44:13;;;;;;;17.92;11.13;;;7.50;97.30;;;;;;5000459;28;20034;-74
2020/12/21 06:46:38;;;;;;;17.55;10.80;;;7.50;97.50;;;;;;5029218;28;20094;-70
2020/12/21 06:49:05;;;;;;;18.48;11.95;;;7.50;97.30;;;;;;5024219;28;20065;-72
2020/12/21 06:51:31;;;;;;;19.20;11.48;;;7.50;97.30;;;;;;5021909;28;20025;-74
2020/12/21 06:54:02;;;;;;;18.52;12.35;;;7.50;97.30;;;;;;5019924;28;20136;-72
2020/12/21 06:56:28;;;;;;;18.30;11.60;;;7.50;97.30;;;;;;5020916;28;20022;-73
2020/12/21 06:58:58;;;;;;;18.05;10.68;;;7.50;97.30;;;;;;5034259;28;20083;-76
2020/12/21 07:01:26;;;;;;;19.48;13.00;;;7.50;97.30;;;;;;5029438;28;20022;-75
2020/12/21 07:03:52;;;;;;;19.30;11.45;;;7.50;97.30;;;;;;5015915;28;20018;-74
2020/12/21 07:06:18;;;;;;;18.80;11.27;;;7.50;97.30;;;;;;5024922;28;20500;-73
2020/12/21 07:08:44;;;;;;;19.23;11.73;;;7.50;97.30;;;;;;5033933;28;20026;-73
2020/12/21 07:11:17;;;;;;;20.70;12.30;;;7.50;97.20;;;;;;5020674;28;20489;-72
2020/12/21 07:13:45;;;;;;;18.05;11.80;;;7.50;97.20;;;;;;5043701;28;20398;-73
2020/12/21 07:16:11;;;;;;;17.85;12.20;;;7.50;97.20;;;;;;5033030;28;20466;-72
2020/12/21 07:18:36;;;;;;;18.90;11.95;;;7.40;97.20;;;;;;5038070;28;20520;-72
2020/12/21 07:21:07;;;;;;;19.15;11.75;;;7.40;97.10;;;;;;5033673;28;20021;-71
2020/12/21 07:23:32;;;;;;;19.38;10.55;;;7.40;97.20;;;;;;5034295;28;20024;-72
2020/12/21 07:25:58;;;;;;;16.65;11.15;;;7.40;97.10;;;;;;5018958;28;20358;-72
2020/12/21 07:28:24;;;;;;;16.73;10.65;;;7.30;97.00;;;;;;5041438;28;20021;-73
2020/12/21 07:30:51;;;;;;;17.15;11.65;;;7.30;97.10;;;;;;5040334;28;20130;-73
2020/12/21 07:33:17;;;;;;;17.95;11.02;;;7.30;97.00;;;;;;5036619;28;20365;-73
2020/12/21 07:35:42;;;;;;;20.25;12.27;;;7.30;97.00;;;;;;5035235;28;20030;-71
2020/12/21 07:38:12;;;;;;;22.92;12.13;;;7.30;97.00;;;;;;5030828;28;20029;-71
2020/12/21 07:40:43;;;;;;;18.83;11.60;;;7.20;97.00;;;;;;5043936;28;20043;-71
2020/12/21 07:43:17;;;;;;;19.50;11.75;;;7.20;97.00;;;;;;5039637;28;20059;-72
2020/12/21 07:45:47;;;;;;;19.15;11.80;;;7.20;97.00;;;;;;5049328;28;20033;-74
2020/12/21 07:48:13;;;;;;;18.73;10.77;;;7.20;97.00;;;;;;5028962;28;20041;-72
2020/12/21 07:50:40;;;;;;;18.55;11.02;;;7.20;97.00;;;;;;5049445;28;20389;-72
2020/12/21 07:53:06;;;;;;;18.98;12.25;;;7.20;97.20;;;;;;5012262;28;20049;-72
2020/12/21 07:55:31;;;;;;;19.08;10.25;;;7.20;97.00;;;;;;5031282;28;20366;-72
2020/12/21 07:57:57;;;;;;;17.90;10.90;;;7.20;97.00;;;;;;5038607;28;20028;-72
2020/12/21 08:00:22;;;;;;;17.95;10.95;;;7.20;97.00;;;;;;5047127;28;20021;-72
2020/12/21 08:02:50;;;;;;;19.08;11.32;;;7.20;97.10;;;;;;5045038;28;20086;-71
2020/12/21 08:05:19;;;;;;;18.65;11.35;;;7.20;97.10;;;;;;5048895;28;20048;-71
2020/12/21 08:07:45;;;;;;;18.42;10.77;;;7.20;97.10;;;;;;5040355;28;20035;-72
2020/12/21 08:10:12;;;;;;;17.00;10.82;;;7.20;97.10;;;;;;5045644;28;20099;-72
2020/12/21 08:12:38;;;;;;;21.58;11.43;;;7.30;97.10;;;;;;5041514;28;20069;-72
2020/12/21 08:15:05;;;;;;;20.15;11.35;;;7.20;97.10;;;;;;5024671;28;20025;-72
2020/12/21 08:17:32;;;;;;;20.58;11.32;;;7.20;97.30;;;;;;5045561;28;20040;-72
2020/12/21 08:19:59;;;;;;;20.77;11.63;;;7.30;97.10;;;;;;5050928;28;20108;-72
2020/12/21 08:22:26;;;;;;;23.30;12.10;;;7.20;97.10;;;;;;5021969;28;20462;-71
2020/12/21 08:25:03;;;;;;;20.55;11.90;;;7.30;97.10;;;;;;5025350;28;20029;-70
2020/12/21 08:27:28;;;;;;;18.42;11.30;;;7.20;97.10;;;;;;5025047;28;21719;-70
2020/12/21 08:30:14;;;;;;;20.13;11.75;;;7.30;97.20;;;;;;5031656;28;20029;-70
2020/12/21 08:32:40;;;;;;;18.92;11.77;;;7.20;97.10;;;;;;5036474;28;20076;-70
2020/12/21 08:35:06;;;;;;;17.80;11.23;;;7.20;97.10;;;;;;5029006;28;20034;-70
2020/12/21 08:37:33;;;;;;;22.50;11.57;;;7.20;97.10;;;;;;5030324;28;20033;-71
2020/12/21 08:40:09;;;;;;;16.98;10.23;;;7.30;97.10;;;;;;5043521;28;20075;-70
2020/12/21 08:42:35;;;;;;;20.95;12.30;;;7.30;97.10;;;;;;5036599;28;20424;-70
2020/12/21 08:45:00;;;;;;;20.95;11.18;;;7.20;97.10;;;;;;5042142;28;20020;-71
2020/12/21 08:47:26;;;;;;;21.38;11.98;;;7.30;97.10;;;;;;5028326;28;20072;-74
2020/12/21 08:49:51;;;;;;;21.88;12.27;;;7.30;97.10;;;;;;5031596;28;20036;-71
2020/12/21 08:52:16;;;;;;;20.98;11.80;;;7.30;97.10;;;;;;5031305;28;20025;-71
2020/12/21 08:54:42;;;;;;;24.27;10.88;;;7.30;97.10;;;;;;5035233;28;20046;-71
2020/12/21 08:57:08;;;;;;;22.08;12.07;;;7.30;97.00;;;;;;5026877;28;20054;-71
2020/12/21 08:59:33;;;;;;;21.02;12.07;;;7.40;97.00;;;;;;5038897;28;20037;-70
2020/12/21 09:01:59;;;;;;;23.00;12.27;;;7.40;97.00;;;;;;5027717;28;20025;-71
2020/12/21 09:04:24;;;;;;;23.20;13.00;;;7.40;97.00;;;;;;5036403;28;20021;-70
2020/12/21 09:06:49;;;;;;;22.55;12.63;;;7.40;97.00;;;;;;5031136;28;20064;-70
2020/12/21 09:09:15;;;;;;;20.60;12.23;;;7.50;97.20;;;;;;5030683;28;20504;-71
2020/12/21 09:11:41;;;;;;;22.00;12.40;;;7.40;96.90;;;;;;5031680;28;20072;-71
2020/12/21 09:14:06;;;;;;;19.65;12.30;;;7.40;96.90;;;;;;5031894;28;20033;-70
2020/12/21 09:16:32;;;;;;;24.52;12.20;;;7.40;96.90;;;;;;5032112;28;20025;-70
2020/12/21 09:18:59;;;;;;;19.38;11.25;;;7.40;96.90;;;;;;5043989;28;20117;-71
2020/12/21 09:21:25;;;;;;;15.98;10.35;;;7.40;96.90;;;;;;5028267;28;20037;-69
2020/12/21 09:23:52;;;;;;;18.88;10.57;;;7.40;96.90;;;;;;5028387;28;20358;-74
2020/12/21 09:26:19;;;;;;;18.65;10.02;;;7.40;96.90;;;;;;5027616;28;20025;-69
2020/12/21 09:28:46;;;;;;;17.98;10.80;;;7.50;96.90;;;;;;5028094;28;20079;-69
2020/12/21 09:31:15;;;;;;;21.63;10.30;;;7.50;96.90;;;;;;5030341;28;20112;-68
2020/12/21 09:33:40;;;;;;;16.33;10.25;;;7.50;96.90;;;;;;5028326;28;20037;-69
2020/12/21 09:36:07;;;;;;;16.65;10.43;;;7.50;96.90;;;;;;5030488;28;20359;-73
2020/12/21 09:38:33;;;;;;;16.30;10.35;;;7.50;96.90;;;;;;5027236;28;20034;-70
2020/12/21 09:40:58;;;;;;;18.83;11.27;;;7.60;96.80;;;;;;5030388;28;20434;-70
2020/12/21 09:43:24;;;;;;;17.50;10.65;;;7.60;96.80;;;;;;5029927;28;20033;-70
2020/12/21 09:45:49;;;;;;;16.15;9.93;;;7.60;96.80;;;;;;5029962;28;20025;-70
2020/12/21 09:48:15;;;;;;;18.35;10.23;;;7.60;96.80;;;;;;5019012;28;20026;-70
2020/12/21 09:50:40;;;;;;;17.98;10.70;;;7.60;96.80;;;;;;5033291;28;20520;-69
2020/12/21 09:53:05;;;;;;;18.48;10.55;;;7.70;96.80;;;;;;5012516;28;494052;-69
2020/12/21 09:55:31;;;;;;;15.93;10.23;;;7.70;96.80;;;;;;5026687;28;20034;-71
2020/12/21 09:57:56;;;;;;;17.88;10.80;;;7.70;96.80;;;;;;5011724;28;20022;-71
2020/12/21 10:00:22;;;;;;;17.65;10.48;;;7.70;96.70;;;;;;4993886;28;20029;-72
2020/12/21 10:02:47;;;;;;;17.50;10.13;;;7.80;96.70;;;;;;5011327;28;20029;-72
2020/12/21 10:05:13;;;;;;;18.15;10.52;;;7.70;96.70;;;;;;5024966;28;20666;-71
2020/12/21 10:07:38;;;;;;;17.30;10.35;;;7.70;96.80;;;;;;5030366;28;20108;-71
2020/12/21 10:10:04;;;;;;;16.80;10.20;;;7.80;96.80;;;;;;5013846;28;20072;-70
2020/12/21 10:12:30;;;;;;;18.35;10.48;;;7.70;96.80;;;;;;5013999;28;20030;-71
2020/12/21 10:14:55;;;;;;;17.00;10.02;;;7.80;97.10;;;;;;5029131;28;20400;-73
2020/12/21 10:17:20;;;;;;;19.42;10.10;;;7.80;96.90;;;;;;5012062;28;20105;-72
2020/12/21 10:19:46;;;;;;;20.17;10.25;;;7.90;96.90;;;;;;5011402;28;20084;-73
2020/12/21 10:22:11;;;;;;;17.92;10.32;;;7.80;96.80;;;;;;5025376;28;20393;-73
2020/12/21 10:24:37;;;;;;;16.10;9.60;;;7.90;96.90;;;;;;5008514;28;20060;-72
2020/12/21 10:27:02;;;;;;;18.02;9.35;;;7.90;96.90;;;;;;5011225;28;20044;-73
2020/12/21 10:29:28;;;;;;;19.25;9.80;;;8.00;96.80;;;;;;5014805;28;20069;-73
2020/12/21 10:31:57;;;;;;;15.82;9.52;;;8.00;96.80;;;;;;5028370;28;20028;-73
2020/12/21 10:34:22;;;;;;;15.90;9.57;;;8.00;96.80;;;;;;5030683;28;20032;-72
2020/12/21 10:36:52;;;;;;;15.65;9.13;;;8.10;96.80;;;;;;5030226;28;20053;-72
2020/12/21 10:39:18;;;;;;;21.25;9.68;;;8.10;96.70;;;;;;5034699;28;20041;-72
2020/12/21 10:41:44;;;;;;;17.48;10.27;;;8.10;96.70;;;;;;5030666;28;20108;-72
2020/12/21 10:44:10;;;;;;;17.38;9.60;;;8.10;96.70;;;;;;5029743;28;20116;-72
2020/12/21 10:46:35;;;;;;;13.40;8.43;;;8.10;96.70;;;;;;5024635;28;20564;-74
2020/12/21 10:49:01;;;;;;;16.15;8.82;;;8.20;96.80;;;;;;5016099;28;20036;-72
2020/12/21 10:51:27;;;;;;;14.60;8.80;;;8.20;96.80;;;;;;5021454;28;20056;-72
2020/12/21 10:53:53;;;;;;;14.88;8.88;;;8.20;96.70;;;;;;5025846;28;20111;-72
2020/12/21 10:56:19;;;;;;;12.82;8.18;;;8.30;96.70;;;;;;5031911;28;20398;-72
2020/12/21 10:58:44;;;;;;;14.55;8.05;;;8.30;96.60;;;;;;5033458;28;20021;-70
2020/12/21 11:01:10;;;;;;;12.63;7.85;;;8.40;96.60;;;;;;5034318;28;20359;-72
2020/12/21 11:03:35;;;;;;;14.70;8.07;;;8.40;96.50;;;;;;5028102;28;20699;-72
2020/12/21 11:06:01;;;;;;;15.55;8.70;;;8.40;96.50;;;;;;5033848;28;20025;-72
2020/12/21 11:08:26;;;;;;;12.98;8.18;;;8.40;96.50;;;;;;5033287;28;20065;-72
2020/12/21 11:10:52;;;;;;;16.75;7.93;;;8.50;96.50;;;;;;5033884;28;20041;-71
2020/12/21 11:13:17;;;;;;;13.50;7.97;;;8.50;96.50;;;;;;5033093;28;20049;-72
2020/12/21 11:15:43;;;;;;;14.68;8.80;;;8.50;96.40;;;;;;5015213;28;20448;-72
2020/12/21 11:18:08;;;;;;;14.02;8.35;;;8.50;96.40;;;;;;5029949;28;20041;-72
2020/12/21 11:20:34;;;;;;;12.30;7.95;;;8.50;96.40;;;;;;5028267;28;20029;-72
2020/12/21 11:22:59;;;;;;;13.23;7.68;;;8.50;96.40;;;;;;5028991;28;20032;-72
2020/12/21 11:25:25;;;;;;;12.70;8.40;;;8.50;96.40;;;;;;5015436;28;20359;-72
2020/12/21 11:27:50;;;;;;;13.85;7.93;;;8.60;96.40;;;;;;5012822;28;20037;-72
2020/12/21 11:30:16;;;;;;;11.93;7.70;;;8.60;96.40;;;;;;5021428;28;20025;-72
2020/12/21 11:32:42;;;;;;;11.73;7.28;;;8.60;96.40;;;;;;5033538;28;20014;-72
2020/12/21 11:35:08;;;;;;;13.30;8.27;;;8.60;96.40;;;;;;5012728;28;20434;-72
2020/12/21 11:37:35;;;;;;;10.45;6.95;;;8.70;96.40;;;;;;5033614;28;20053;-71
2020/12/21 11:40:00;;;;;;;15.85;7.65;;;8.70;96.30;;;;;;5031989;28;20029;-72
2020/12/21 11:42:26;;;;;;;14.88;7.75;;;8.70;96.30;;;;;;5032354;28;20021;-70
2020/12/21 11:44:51;;;;;;;12.40;7.35;;;8.70;96.30;;;;;;5005878;28;20026;-71
2020/12/21 11:47:17;;;;;;;10.88;6.80;;;8.70;96.20;;;;;;5029199;28;20010;-71
2020/12/21 11:49:42;;;;;;;13.63;8.00;;;8.70;96.20;;;;;;5030983;28;20044;-71
2020/12/21 11:52:08;;;;;;;10.93;7.25;;;8.70;96.20;;;;;;5033125;28;20045;-71
2020/12/21 11:54:34;;;;;;;11.57;6.93;;;8.70;96.20;;;;;;5030523;28;20053;-71
2020/12/21 11:56:59;;;;;;;14.20;6.90;;;8.70;96.10;;;;;;5022556;28;20029;-71
2020/12/21 11:59:27;;;;;;;11.93;6.88;;;8.70;96.00;;;;;;5034690;28;20452;-71
2020/12/21 12:02:05;;;;;;;11.05;6.90;;;8.80;96.00;;;;;;5014118;28;20021;-71
2020/12/21 12:04:33;;;;;;;11.27;7.38;;;8.80;96.00;;;;;;5024557;28;20029;-71
2020/12/21 12:07:03;;;;;;;15.68;7.22;;;8.80;96.00;;;;;;5031989;28;20029;-71
2020/12/21 12:09:28;;;;;;;12.40;7.00;;;8.80;96.00;;;;;;5030796;28;20402;-72
2020/12/21 12:11:57;;;;;;;14.38;7.20;;;8.90;95.90;;;;;;5038745;28;20025;-71
2020/12/21 12:14:23;;;;;;;13.20;7.57;;;8.90;95.80;;;;;;5031996;28;20474;-72
2020/12/21 12:16:49;;;;;;;10.70;6.38;;;8.90;95.70;;;;;;5013398;28;20034;-72
2020/12/21 12:19:15;;;;;;;11.50;7.32;;;8.90;95.70;;;;;;5028072;28;20025;-72
2020/12/21 12:21:41;;;;;;;11.23;6.82;;;9.00;95.70;;;;;;5026406;28;20168;-72
2020/12/21 12:24:07;;;;;;;12.70;6.93;;;8.90;95.60;;;;;;5024446;28;20075;-72
2020/12/21 12:26:32;;;;;;;12.63;7.32;;;9.00;95.60;;;;;;5031089;28;20036;-71
2020/12/21 12:28:57;;;;;;;13.70;6.90;;;9.00;95.60;;;;;;5030533;28;20060;-71
2020/12/21 12:31:23;;;;;;;13.90;7.85;;;9.00;95.60;;;;;;5034295;28;20111;-71
2020/12/21 12:33:50;;;;;;;14.07;7.30;;;9.00;95.50;;;;;;5032124;28;20440;-72